sensor_id;sensor_type;location;lat;lon;timestamp;temperature;humidity
46508;DHT22;32223;53.654;10.014;2023-03-16T00:02:08;0.00;99.90
46508;DHT22;32223;53.654;10.014;2023-03-16T00:04:34;0.00;99.90
46508;DHT22;32223;53.654;10.014;2023-03-16T00:07:04;0.00;99.90
46508;DHT22;32223;53.654;10.014;2023-03-16T00:09:30;-0.10;99.90
46508;DHT22;32223;53.654;10.014;2023-03-16T00:11:57;-0.10;99.90
46508;DHT22;32223;53.654;10.014;2023-03-16T00:14:23;-0.10;99.90
46508;DHT22;32223;53.654;10.014;2023-03-16T00:16:49;-0.20;99.90
46508;DHT22;32223;53.654;10.014;2023-03-16T00:19:15;-0.20;99.90
46508;DHT22;32223;53.654;10.014;2023-03-16T00:21:40;-0.20;99.90
46508;DHT22;32223;53.654;10.014;2023-03-16T00:24:06;-0.20;99.90
46508;DHT22;32223;53.654;10.014;2023-03-16T00:26:32;-0.20;99.90
46508;DHT22;32223;53.654;10.014;2023-03-16T00:28:57;-0.30;99.90
46508;DHT22;32223;53.654;10.014;2023-03-16T00:31:23;-0.30;99.90
46508;DHT22;32223;53.654;10.014;2023-03-16T00:33:51;-0.30;99.90
46508;DHT22;32223;53.654;10.014;2023-03-16T00:36:17;-0.30;99.90
46508;DHT22;32223;53.654;10.014;2023-03-16T00:38:43;-0.30;99.90
46508;DHT22;32223;53.654;10.014;2023-03-16T00:41:15;-0.30;99.90
46508;DHT22;32223;53.654;10.014;2023-03-16T00:43:42;-0.30;99.90
46508;DHT22;32223;53.654;10.014;2023-03-16T00:46:11;-0.30;99.90
46508;DHT22;32223;53.654;10.014;2023-03-16T00:48:39;-0.30;99.90
46508;DHT22;32223;53.654;10.014;2023-03-16T00:51:09;-0.30;99.90
46508;DHT22;32223;53.654;10.014;2023-03-16T00:53:38;-0.30;99.90
46508;DHT22;32223;53.654;10.014;2023-03-16T00:56:04;-0.20;99.90
46508;DHT22;32223;53.654;10.014;2023-03-16T00:58:35;-0.30;99.90
46508;DHT22;32223;53.654;10.014;2023-03-16T01:01:13;-0.20;99.90
46508;DHT22;32223;53.654;10.014;2023-03-16T01:03:40;-0.20;99.90
46508;DHT22;32223;53.654;10.014;2023-03-16T01:06:08;-0.20;99.90
46508;DHT22;32223;53.654;10.014;2023-03-16T01:08:38;-0.20;99.90
46508;DHT22;32223;53.654;10.014;2023-03-16T01:11:06;-0.20;99.90
46508;DHT22;32223;53.654;10.014;2023-03-16T01:13:32;-0.20;99.90
46508;DHT22;32223;53.654;10.014;2023-03-16T01:15:59;-0.20;99.90
46508;DHT22;32223;53.654;10.014;2023-03-16T01:18:25;-0.30;99.90
46508;DHT22;32223;53.654;10.014;2023-03-16T01:20:51;-0.30;99.90
46508;DHT22;32223;53.654;10.014;2023-03-16T01:23:18;-0.30;99.90
46508;DHT22;32223;53.654;10.014;2023-03-16T01:25:44;-0.30;99.90
46508;DHT22;32223;53.654;10.014;2023-03-16T01:28:18;-0.30;99.90
46508;DHT22;32223;53.654;10.014;2023-03-16T01:30:45;-0.30;99.90
46508;DHT22;32223;53.654;10.014;2023-03-16T01:33:10;-0.40;99.90
46508;DHT22;32223;53.654;10.014;2023-03-16T01:35:36;-0.40;99.90
46508;DHT22;32223;53.654;10.014;2023-03-16T01:38:01;-0.40;99.90
46508;DHT22;32223;53.654;10.014;2023-03-16T01:40:29;-0.50;99.90
46508;DHT22;32223;53.654;10.014;2023-03-16T01:43:00;-0.50;99.90
46508;DHT22;32223;53.654;10.014;2023-03-16T01:45:56;-0.50;99.90
46508;DHT22;32223;53.654;10.014;2023-03-16T01:48:36;-0.60;99.90
46508;DHT22;32223;53.654;10.014;2023-03-16T01:51:08;-0.70;99.90
46508;DHT22;32223;53.654;10.014;2023-03-16T01:53:35;-0.70;99.90
46508;DHT22;32223;53.654;10.014;2023-03-16T01:56:04;-0.70;99.90
46508;DHT22;32223;53.654;10.014;2023-03-16T01:58:33;-0.70;99.90
46508;DHT22;32223;53.654;10.014;2023-03-16T02:00:59;-0.70;99.90
46508;DHT22;32223;53.654;10.014;2023-03-16T02:03:26;-0.80;99.90
46508;DHT22;32223;53.654;10.014;2023-03-16T02:06:11;-0.80;99.90
46508;DHT22;32223;53.654;10.014;2023-03-16T02:08:39;-0.90;99.90
46508;DHT22;32223;53.654;10.014;2023-03-16T02:11:08;-0.90;99.90
46508;DHT22;32223;53.654;10.014;2023-03-16T02:13:34;-0.90;99.90
46508;DHT22;32223;53.654;10.014;2023-03-16T02:16:05;-1.00;99.90
46508;DHT22;32223;53.654;10.014;2023-03-16T02:18:31;-1.00;99.90
46508;DHT22;32223;53.654;10.014;2023-03-16T02:21:34;-1.00;99.90
46508;DHT22;32223;53.654;10.014;2023-03-16T02:24:02;-1.00;99.90
46508;DHT22;32223;53.654;10.014;2023-03-16T02:26:48;-1.10;99.90
46508;DHT22;32223;53.654;10.014;2023-03-16T02:32:10;-1.10;99.90
46508;DHT22;32223;53.654;10.014;2023-03-16T02:34:37;-1.10;99.90
46508;DHT22;32223;53.654;10.014;2023-03-16T02:37:04;-1.10;99.90
46508;DHT22;32223;53.654;10.014;2023-03-16T02:39:30;-1.10;99.90
46508;DHT22;32223;53.654;10.014;2023-03-16T02:41:56;-1.10;99.90
46508;DHT22;32223;53.654;10.014;2023-03-16T02:44:25;-1.10;99.90
46508;DHT22;32223;53.654;10.014;2023-03-16T02:46:56;-1.10;99.90
46508;DHT22;32223;53.654;10.014;2023-03-16T02:49:31;-1.20;99.90
46508;DHT22;32223;53.654;10.014;2023-03-16T02:51:58;-1.20;99.90
46508;DHT22;32223;53.654;10.014;2023-03-16T02:54:24;-1.20;99.90
46508;DHT22;32223;53.654;10.014;2023-03-16T02:56:49;-1.20;99.90
46508;DHT22;32223;53.654;10.014;2023-03-16T02:59:16;-1.20;99.90
46508;DHT22;32223;53.654;10.014;2023-03-16T03:01:41;-1.20;99.90
46508;DHT22;32223;53.654;10.014;2023-03-16T03:04:07;-1.20;99.90
46508;DHT22;32223;53.654;10.014;2023-03-16T03:06:33;-1.20;99.90
46508;DHT22;32223;53.654;10.014;2023-03-16T03:08:59;-1.20;99.90
46508;DHT22;32223;53.654;10.014;2023-03-16T03:11:26;-1.20;99.90
46508;DHT22;32223;53.654;10.014;2023-03-16T03:13:52;-1.20;99.90
46508;DHT22;32223;53.654;10.014;2023-03-16T03:16:18;-1.30;99.90
46508;DHT22;32223;53.654;10.014;2023-03-16T03:18:44;-1.20;99.90
46508;DHT22;32223;53.654;10.014;2023-03-16T03:21:09;-1.20;99.90
46508;DHT22;32223;53.654;10.014;2023-03-16T03:23:35;-1.30;99.90
46508;DHT22;32223;53.654;10.014;2023-03-16T03:26:01;-1.30;99.90
46508;DHT22;32223;53.654;10.014;2023-03-16T03:28:27;-1.30;99.90
46508;DHT22;32223;53.654;10.014;2023-03-16T03:30:53;-1.30;99.90
46508;DHT22;32223;53.654;10.014;2023-03-16T03:33:19;-1.30;99.90
46508;DHT22;32223;53.654;10.014;2023-03-16T03:35:47;-1.20;99.90
46508;DHT22;32223;53.654;10.014;2023-03-16T03:38:17;-1.30;99.90
46508;DHT22;32223;53.654;10.014;2023-03-16T03:40:43;-1.30;99.90
46508;DHT22;32223;53.654;10.014;2023-03-16T03:43:08;-1.20;99.90
46508;DHT22;32223;53.654;10.014;2023-03-16T03:45:34;-1.20;99.90
46508;DHT22;32223;53.654;10.014;2023-03-16T03:47:59;-1.20;99.90
46508;DHT22;32223;53.654;10.014;2023-03-16T03:50:25;-1.20;99.90
46508;DHT22;32223;53.654;10.014;2023-03-16T03:52:50;-1.20;99.90
46508;DHT22;32223;53.654;10.014;2023-03-16T03:55:16;-1.20;99.90
46508;DHT22;32223;53.654;10.014;2023-03-16T03:57:42;-1.20;99.90
46508;DHT22;32223;53.654;10.014;2023-03-16T04:00:08;-1.20;99.90
46508;DHT22;32223;53.654;10.014;2023-03-16T04:02:38;-1.10;99.90
46508;DHT22;32223;53.654;10.014;2023-03-16T04:05:05;-1.10;99.90
46508;DHT22;32223;53.654;10.014;2023-03-16T04:07:31;-1.10;99.90
46508;DHT22;32223;53.654;10.014;2023-03-16T04:09:56;-1.10;99.90
46508;DHT22;32223;53.654;10.014;2023-03-16T04:12:22;-1.00;99.90
46508;DHT22;32223;53.654;10.014;2023-03-16T04:14:48;-1.00;99.90
46508;DHT22;32223;53.654;10.014;2023-03-16T04:17:13;-1.10;99.90
46508;DHT22;32223;53.654;10.014;2023-03-16T04:19:39;-1.10;99.90
46508;DHT22;32223;53.654;10.014;2023-03-16T04:22:05;-1.10;99.90
46508;DHT22;32223;53.654;10.014;2023-03-16T04:24:31;-1.10;99.90
46508;DHT22;32223;53.654;10.014;2023-03-16T04:26:59;-1.10;99.90
46508;DHT22;32223;53.654;10.014;2023-03-16T04:29:25;-1.10;99.90
46508;DHT22;32223;53.654;10.014;2023-03-16T04:31:51;-1.10;99.90
46508;DHT22;32223;53.654;10.014;2023-03-16T04:34:18;-1.10;99.90
46508;DHT22;32223;53.654;10.014;2023-03-16T04:36:44;-1.10;99.90
46508;DHT22;32223;53.654;10.014;2023-03-16T04:39:10;-1.20;99.90
46508;DHT22;32223;53.654;10.014;2023-03-16T04:41:35;-1.20;99.90
46508;DHT22;32223;53.654;10.014;2023-03-16T04:44:01;-1.20;99.90
46508;DHT22;32223;53.654;10.014;2023-03-16T04:46:27;-1.20;99.90
46508;DHT22;32223;53.654;10.014;2023-03-16T04:48:53;-1.20;99.90
46508;DHT22;32223;53.654;10.014;2023-03-16T04:51:23;-1.20;99.90
46508;DHT22;32223;53.654;10.014;2023-03-16T04:53:48;-1.20;99.90
46508;DHT22;32223;53.654;10.014;2023-03-16T04:56:14;-1.20;99.90
46508;DHT22;32223;53.654;10.014;2023-03-16T04:58:43;-1.20;99.90
46508;DHT22;32223;53.654;10.014;2023-03-16T05:01:09;-1.10;99.90
46508;DHT22;32223;53.654;10.014;2023-03-16T05:03:35;-1.10;99.90
46508;DHT22;32223;53.654;10.014;2023-03-16T05:06:00;-1.10;99.90
46508;DHT22;32223;53.654;10.014;2023-03-16T05:08:26;-1.10;99.90
46508;DHT22;32223;53.654;10.014;2023-03-16T05:10:56;-1.10;99.90
46508;DHT22;32223;53.654;10.014;2023-03-16T05:13:21;-1.10;99.90
46508;DHT22;32223;53.654;10.014;2023-03-16T05:15:47;-1.10;99.90
46508;DHT22;32223;53.654;10.014;2023-03-16T05:18:12;-1.10;99.90
46508;DHT22;32223;53.654;10.014;2023-03-16T05:20:39;-1.10;99.90
46508;DHT22;32223;53.654;10.014;2023-03-16T05:23:05;-1.10;99.90
46508;DHT22;32223;53.654;10.014;2023-03-16T05:25:33;-1.00;99.90
46508;DHT22;32223;53.654;10.014;2023-03-16T05:27:58;-1.00;99.90
46508;DHT22;32223;53.654;10.014;2023-03-16T05:30:24;-1.00;99.90
46508;DHT22;32223;53.654;10.014;2023-03-16T05:32:51;-1.00;99.90
46508;DHT22;32223;53.654;10.014;2023-03-16T05:35:17;-1.00;99.90
46508;DHT22;32223;53.654;10.014;2023-03-16T05:37:43;-1.00;99.90
46508;DHT22;32223;53.654;10.014;2023-03-16T05:40:10;-1.00;99.90
46508;DHT22;32223;53.654;10.014;2023-03-16T05:42:38;-0.90;99.90
46508;DHT22;32223;53.654;10.014;2023-03-16T05:45:04;-0.90;99.90
46508;DHT22;32223;53.654;10.014;2023-03-16T05:47:30;-0.80;99.90
46508;DHT22;32223;53.654;10.014;2023-03-16T05:49:56;-0.80;99.90
46508;DHT22;32223;53.654;10.014;2023-03-16T05:52:21;-0.80;99.90
46508;DHT22;32223;53.654;10.014;2023-03-16T05:54:49;-0.70;99.90
46508;DHT22;32223;53.654;10.014;2023-03-16T05:57:15;-0.70;99.90
46508;DHT22;32223;53.654;10.014;2023-03-16T05:59:41;-0.60;99.90
46508;DHT22;32223;53.654;10.014;2023-03-16T06:02:06;-0.60;99.90
46508;DHT22;32223;53.654;10.014;2023-03-16T06:04:35;-0.60;99.90
46508;DHT22;32223;53.654;10.014;2023-03-16T06:07:01;-0.60;99.90
46508;DHT22;32223;53.654;10.014;2023-03-16T06:09:26;-0.50;99.90
46508;DHT22;32223;53.654;10.014;2023-03-16T06:11:52;-0.50;99.90
46508;DHT22;32223;53.654;10.014;2023-03-16T06:14:18;-0.50;99.90
46508;DHT22;32223;53.654;10.014;2023-03-16T06:16:44;-0.40;99.90
46508;DHT22;32223;53.654;10.014;2023-03-16T06:19:09;-0.30;99.90
46508;DHT22;32223;53.654;10.014;2023-03-16T06:21:35;-0.20;99.90
46508;DHT22;32223;53.654;10.014;2023-03-16T06:24:00;-0.20;99.90
46508;DHT22;32223;53.654;10.014;2023-03-16T06:26:26;-0.10;99.90
46508;DHT22;32223;53.654;10.014;2023-03-16T06:28:52;-0.10;99.90
46508;DHT22;32223;53.654;10.014;2023-03-16T06:31:18;0.00;99.90
46508;DHT22;32223;53.654;10.014;2023-03-16T06:33:43;0.10;99.90
46508;DHT22;32223;53.654;10.014;2023-03-16T06:36:09;0.10;99.90
46508;DHT22;32223;53.654;10.014;2023-03-16T06:38:34;0.30;99.90
46508;DHT22;32223;53.654;10.014;2023-03-16T06:41:00;0.30;99.90
46508;DHT22;32223;53.654;10.014;2023-03-16T06:43:26;0.30;99.90
46508;DHT22;32223;53.654;10.014;2023-03-16T06:45:51;0.40;99.90
46508;DHT22;32223;53.654;10.014;2023-03-16T06:48:17;0.40;99.90
46508;DHT22;32223;53.654;10.014;2023-03-16T06:50:44;0.40;99.90
46508;DHT22;32223;53.654;10.014;2023-03-16T06:53:10;0.50;99.90
46508;DHT22;32223;53.654;10.014;2023-03-16T06:55:36;0.50;99.90
46508;DHT22;32223;53.654;10.014;2023-03-16T06:58:02;0.50;99.90
46508;DHT22;32223;53.654;10.014;2023-03-16T07:00:27;0.60;99.90
46508;DHT22;32223;53.654;10.014;2023-03-16T07:02:53;0.60;99.90
46508;DHT22;32223;53.654;10.014;2023-03-16T07:05:19;0.60;99.90
46508;DHT22;32223;53.654;10.014;2023-03-16T07:07:44;0.70;99.90
46508;DHT22;32223;53.654;10.014;2023-03-16T07:10:14;0.70;99.90
46508;DHT22;32223;53.654;10.014;2023-03-16T07:12:42;0.70;99.90
46508;DHT22;32223;53.654;10.014;2023-03-16T07:15:08;0.80;99.90
46508;DHT22;32223;53.654;10.014;2023-03-16T07:17:34;0.80;99.90
46508;DHT22;32223;53.654;10.014;2023-03-16T07:19:59;1.00;99.90
46508;DHT22;32223;53.654;10.014;2023-03-16T07:22:30;1.10;99.90
46508;DHT22;32223;53.654;10.014;2023-03-16T07:24:56;1.20;99.90
46508;DHT22;32223;53.654;10.014;2023-03-16T07:27:23;1.20;99.90
46508;DHT22;32223;53.654;10.014;2023-03-16T07:29:49;1.30;99.90
46508;DHT22;32223;53.654;10.014;2023-03-16T07:32:16;1.40;99.90
46508;DHT22;32223;53.654;10.014;2023-03-16T07:34:42;1.50;99.90
46508;DHT22;32223;53.654;10.014;2023-03-16T07:37:08;1.50;99.90
46508;DHT22;32223;53.654;10.014;2023-03-16T07:39:35;1.60;99.90
46508;DHT22;32223;53.654;10.014;2023-03-16T07:42:00;1.60;99.90
46508;DHT22;32223;53.654;10.014;2023-03-16T07:44:27;1.70;99.90
46508;DHT22;32223;53.654;10.014;2023-03-16T07:46:53;1.80;99.90
46508;DHT22;32223;53.654;10.014;2023-03-16T07:49:18;1.80;99.90
46508;DHT22;32223;53.654;10.014;2023-03-16T07:51:44;2.00;99.90
46508;DHT22;32223;53.654;10.014;2023-03-16T07:54:10;2.00;99.90
46508;DHT22;32223;53.654;10.014;2023-03-16T07:56:35;2.20;99.90
46508;DHT22;32223;53.654;10.014;2023-03-16T07:59:02;2.30;99.90
46508;DHT22;32223;53.654;10.014;2023-03-16T08:01:27;2.40;99.90
46508;DHT22;32223;53.654;10.014;2023-03-16T08:03:53;2.50;99.90
46508;DHT22;32223;53.654;10.014;2023-03-16T08:06:19;2.60;99.90
46508;DHT22;32223;53.654;10.014;2023-03-16T08:08:46;2.80;99.90
46508;DHT22;32223;53.654;10.014;2023-03-16T08:11:12;2.90;99.90
46508;DHT22;32223;53.654;10.014;2023-03-16T08:13:38;3.00;99.90
46508;DHT22;32223;53.654;10.014;2023-03-16T08:16:04;3.20;99.90
46508;DHT22;32223;53.654;10.014;2023-03-16T08:18:35;3.30;99.90
46508;DHT22;32223;53.654;10.014;2023-03-16T08:21:01;3.40;99.90
46508;DHT22;32223;53.654;10.014;2023-03-16T08:23:27;3.60;99.90
46508;DHT22;32223;53.654;10.014;2023-03-16T08:25:55;3.60;99.90
46508;DHT22;32223;53.654;10.014;2023-03-16T08:28:21;3.70;99.90
46508;DHT22;32223;53.654;10.014;2023-03-16T08:30:48;3.80;99.90
46508;DHT22;32223;53.654;10.014;2023-03-16T08:33:15;4.00;99.90
46508;DHT22;32223;53.654;10.014;2023-03-16T08:35:43;4.00;99.90
46508;DHT22;32223;53.654;10.014;2023-03-16T08:38:14;4.10;99.90
46508;DHT22;32223;53.654;10.014;2023-03-16T08:40:43;4.10;99.90
46508;DHT22;32223;53.654;10.014;2023-03-16T08:43:14;4.20;99.90
46508;DHT22;32223;53.654;10.014;2023-03-16T08:45:40;4.20;99.90
46508;DHT22;32223;53.654;10.014;2023-03-16T08:48:07;4.20;99.90
46508;DHT22;32223;53.654;10.014;2023-03-16T08:50:32;4.30;99.90
46508;DHT22;32223;53.654;10.014;2023-03-16T08:52:58;4.40;99.90
46508;DHT22;32223;53.654;10.014;2023-03-16T08:55:25;4.50;99.90
46508;DHT22;32223;53.654;10.014;2023-03-16T08:57:50;4.50;99.90
46508;DHT22;32223;53.654;10.014;2023-03-16T09:00:16;4.60;99.90
46508;DHT22;32223;53.654;10.014;2023-03-16T09:02:42;4.80;99.90
46508;DHT22;32223;53.654;10.014;2023-03-16T09:05:10;4.90;99.90
46508;DHT22;32223;53.654;10.014;2023-03-16T09:07:37;5.00;99.90
46508;DHT22;32223;53.654;10.014;2023-03-16T09:10:06;5.10;99.90
46508;DHT22;32223;53.654;10.014;2023-03-16T09:12:36;5.30;99.90
46508;DHT22;32223;53.654;10.014;2023-03-16T09:15:03;5.40;99.90
46508;DHT22;32223;53.654;10.014;2023-03-16T09:17:29;5.50;99.90
46508;DHT22;32223;53.654;10.014;2023-03-16T09:19:54;5.50;99.90
46508;DHT22;32223;53.654;10.014;2023-03-16T09:22:20;5.70;99.90
46508;DHT22;32223;53.654;10.014;2023-03-16T09:24:47;5.80;99.90
46508;DHT22;32223;53.654;10.014;2023-03-16T09:27:13;6.00;99.90
46508;DHT22;32223;53.654;10.014;2023-03-16T09:29:39;6.10;99.90
46508;DHT22;32223;53.654;10.014;2023-03-16T09:32:06;6.20;99.90
46508;DHT22;32223;53.654;10.014;2023-03-16T09:34:32;6.30;99.90
46508;DHT22;32223;53.654;10.014;2023-03-16T09:36:57;6.30;99.90
46508;DHT22;32223;53.654;10.014;2023-03-16T09:39:23;6.30;99.90
46508;DHT22;32223;53.654;10.014;2023-03-16T09:41:59;6.30;99.90
46508;DHT22;32223;53.654;10.014;2023-03-16T09:46:58;6.50;99.90
46508;DHT22;32223;53.654;10.014;2023-03-16T09:49:30;6.70;99.90
46508;DHT22;32223;53.654;10.014;2023-03-16T09:52:37;6.90;99.90
46508;DHT22;32223;53.654;10.014;2023-03-16T09:55:22;7.00;99.90
46508;DHT22;32223;53.654;10.014;2023-03-16T09:57:50;7.10;99.90
46508;DHT22;32223;53.654;10.014;2023-03-16T10:00:20;7.20;99.90
46508;DHT22;32223;53.654;10.014;2023-03-16T10:05:31;7.50;99.90
46508;DHT22;32223;53.654;10.014;2023-03-16T10:08:22;7.70;99.90
46508;DHT22;32223;53.654;10.014;2023-03-16T10:16:19;7.90;99.90
46508;DHT22;32223;53.654;10.014;2023-03-16T10:18:49;7.80;99.90
46508;DHT22;32223;53.654;10.014;2023-03-16T10:21:18;7.80;99.90
46508;DHT22;32223;53.654;10.014;2023-03-16T10:23:45;7.90;99.90
46508;DHT22;32223;53.654;10.014;2023-03-16T10:26:17;7.90;99.90
46508;DHT22;32223;53.654;10.014;2023-03-16T10:28:43;8.10;99.90
46508;DHT22;32223;53.654;10.014;2023-03-16T10:31:11;8.20;99.90
46508;DHT22;32223;53.654;10.014;2023-03-16T10:33:37;8.20;99.90
46508;DHT22;32223;53.654;10.014;2023-03-16T10:38:57;8.30;99.90
46508;DHT22;32223;53.654;10.014;2023-03-16T10:41:35;8.50;99.90
46508;DHT22;32223;53.654;10.014;2023-03-16T10:44:26;8.60;99.90
46508;DHT22;32223;53.654;10.014;2023-03-16T10:47:01;8.70;99.90
46508;DHT22;32223;53.654;10.014;2023-03-16T10:49:34;8.90;99.90
46508;DHT22;32223;53.654;10.014;2023-03-16T10:52:10;8.90;99.90
46508;DHT22;32223;53.654;10.014;2023-03-16T10:54:38;9.00;99.80
46508;DHT22;32223;53.654;10.014;2023-03-16T10:57:34;9.10;99.20
46508;DHT22;32223;53.654;10.014;2023-03-16T11:02:37;9.10;99.10
46508;DHT22;32223;53.654;10.014;2023-03-16T11:05:32;9.10;97.30
46508;DHT22;32223;53.654;10.014;2023-03-16T11:08:07;9.20;95.90
46508;DHT22;32223;53.654;10.014;2023-03-16T11:10:38;9.30;94.50
46508;DHT22;32223;53.654;10.014;2023-03-16T11:13:12;9.40;93.90
46508;DHT22;32223;53.654;10.014;2023-03-16T11:18:19;9.60;91.90
46508;DHT22;32223;53.654;10.014;2023-03-16T11:20:47;9.80;90.80
46508;DHT22;32223;53.654;10.014;2023-03-16T11:23:15;9.80;90.10
46508;DHT22;32223;53.654;10.014;2023-03-16T11:25:44;9.80;85.80
46508;DHT22;32223;53.654;10.014;2023-03-16T11:28:18;9.70;83.40
46508;DHT22;32223;53.654;10.014;2023-03-16T11:33:41;9.60;79.30
46508;DHT22;32223;53.654;10.014;2023-03-16T11:36:26;9.50;78.00
46508;DHT22;32223;53.654;10.014;2023-03-16T11:42:15;9.90;76.30
46508;DHT22;32223;53.654;10.014;2023-03-16T11:45:02;10.00;74.70
46508;DHT22;32223;53.654;10.014;2023-03-16T11:50:32;10.30;73.30
46508;DHT22;32223;53.654;10.014;2023-03-16T11:53:30;10.50;76.20
46508;DHT22;32223;53.654;10.014;2023-03-16T11:56:33;10.70;70.50
46508;DHT22;32223;53.654;10.014;2023-03-16T12:04:52;10.70;66.90
46508;DHT22;32223;53.654;10.014;2023-03-16T12:15:24;11.20;64.90
46508;DHT22;32223;53.654;10.014;2023-03-16T12:20:54;11.30;64.30
46508;DHT22;32223;53.654;10.014;2023-03-16T12:26:10;11.00;62.20
46508;DHT22;32223;53.654;10.014;2023-03-16T12:28:37;10.80;64.60
46508;DHT22;32223;53.654;10.014;2023-03-16T12:31:15;10.90;63.10
46508;DHT22;32223;53.654;10.014;2023-03-16T12:38:53;10.90;63.00
46508;DHT22;32223;53.654;10.014;2023-03-16T12:41:39;11.30;62.00
46508;DHT22;32223;53.654;10.014;2023-03-16T12:44:42;11.70;62.70
46508;DHT22;32223;53.654;10.014;2023-03-16T12:47:42;12.30;61.50
46508;DHT22;32223;53.654;10.014;2023-03-16T12:50:13;13.10;59.30
46508;DHT22;32223;53.654;10.014;2023-03-16T12:52:48;13.10;57.80
46508;DHT22;32223;53.654;10.014;2023-03-16T12:58:04;13.50;57.40
46508;DHT22;32223;53.654;10.014;2023-03-16T13:00:39;13.70;56.80
46508;DHT22;32223;53.654;10.014;2023-03-16T13:03:12;14.00;55.40
46508;DHT22;32223;53.654;10.014;2023-03-16T13:05:45;13.60;54.90
46508;DHT22;32223;53.654;10.014;2023-03-16T13:08:15;13.10;55.20
46508;DHT22;32223;53.654;10.014;2023-03-16T13:10:42;12.90;54.90
46508;DHT22;32223;53.654;10.014;2023-03-16T13:13:24;13.10;54.00
46508;DHT22;32223;53.654;10.014;2023-03-16T13:16:05;13.10;55.00
46508;DHT22;32223;53.654;10.014;2023-03-16T13:18:40;13.10;55.20
46508;DHT22;32223;53.654;10.014;2023-03-16T13:21:39;12.90;55.10
46508;DHT22;32223;53.654;10.014;2023-03-16T13:26:47;12.60;55.60
46508;DHT22;32223;53.654;10.014;2023-03-16T13:29:27;12.40;55.50
46508;DHT22;32223;53.654;10.014;2023-03-16T13:31:55;12.30;56.60
46508;DHT22;32223;53.654;10.014;2023-03-16T13:34:49;12.60;57.80
46508;DHT22;32223;53.654;10.014;2023-03-16T13:37:17;12.60;56.40
46508;DHT22;32223;53.654;10.014;2023-03-16T13:39:57;12.40;57.10
46508;DHT22;32223;53.654;10.014;2023-03-16T13:42:28;12.00;57.80
46508;DHT22;32223;53.654;10.014;2023-03-16T13:44:58;11.70;57.40
46508;DHT22;32223;53.654;10.014;2023-03-16T13:47:28;11.50;57.90
46508;DHT22;32223;53.654;10.014;2023-03-16T13:49:56;11.30;59.60
46508;DHT22;32223;53.654;10.014;2023-03-16T13:52:29;11.10;58.20
46508;DHT22;32223;53.654;10.014;2023-03-16T13:54:57;11.00;58.90
46508;DHT22;32223;53.654;10.014;2023-03-16T13:57:26;11.00;58.90
46508;DHT22;32223;53.654;10.014;2023-03-16T14:00:05;10.90;59.70
46508;DHT22;32223;53.654;10.014;2023-03-16T14:02:35;10.60;59.40
46508;DHT22;32223;53.654;10.014;2023-03-16T14:05:20;10.40;57.60
46508;DHT22;32223;53.654;10.014;2023-03-16T14:07:47;10.20;57.10
46508;DHT22;32223;53.654;10.014;2023-03-16T14:10:13;10.00;58.20
46508;DHT22;32223;53.654;10.014;2023-03-16T14:12:52;9.90;58.30
46508;DHT22;32223;53.654;10.014;2023-03-16T14:15:17;9.80;58.30
46508;DHT22;32223;53.654;10.014;2023-03-16T14:17:43;9.70;58.30
46508;DHT22;32223;53.654;10.014;2023-03-16T14:20:18;9.60;59.80
46508;DHT22;32223;53.654;10.014;2023-03-16T14:22:44;9.50;59.20
46508;DHT22;32223;53.654;10.014;2023-03-16T14:25:18;9.40;57.60
46508;DHT22;32223;53.654;10.014;2023-03-16T14:27:46;9.30;58.50
46508;DHT22;32223;53.654;10.014;2023-03-16T14:32:41;9.30;58.40
46508;DHT22;32223;53.654;10.014;2023-03-16T14:35:15;9.20;59.30
46508;DHT22;32223;53.654;10.014;2023-03-16T14:37:42;9.20;59.00
46508;DHT22;32223;53.654;10.014;2023-03-16T14:40:29;9.10;59.00
46508;DHT22;32223;53.654;10.014;2023-03-16T14:42:57;9.20;60.10
46508;DHT22;32223;53.654;10.014;2023-03-16T14:45:29;9.20;60.70
46508;DHT22;32223;53.654;10.014;2023-03-16T14:48:06;9.30;60.50
46508;DHT22;32223;53.654;10.014;2023-03-16T14:50:41;9.40;61.80
46508;DHT22;32223;53.654;10.014;2023-03-16T14:53:08;9.50;60.80
46508;DHT22;32223;53.654;10.014;2023-03-16T14:55:34;9.70;62.10
46508;DHT22;32223;53.654;10.014;2023-03-16T14:58:01;9.80;61.30
46508;DHT22;32223;53.654;10.014;2023-03-16T15:00:27;9.80;60.80
46508;DHT22;32223;53.654;10.014;2023-03-16T15:03:09;9.70;61.80
46508;DHT22;32223;53.654;10.014;2023-03-16T15:05:41;9.60;61.00
46508;DHT22;32223;53.654;10.014;2023-03-16T15:08:13;9.40;61.10
46508;DHT22;32223;53.654;10.014;2023-03-16T15:10:42;9.40;63.00
46508;DHT22;32223;53.654;10.014;2023-03-16T15:13:19;9.20;61.60
46508;DHT22;32223;53.654;10.014;2023-03-16T15:16:05;9.20;62.20
46508;DHT22;32223;53.654;10.014;2023-03-16T15:18:34;9.10;63.70
46508;DHT22;32223;53.654;10.014;2023-03-16T15:21:00;9.10;62.90
46508;DHT22;32223;53.654;10.014;2023-03-16T15:23:27;9.00;62.50
46508;DHT22;32223;53.654;10.014;2023-03-16T15:25:54;8.90;63.20
46508;DHT22;32223;53.654;10.014;2023-03-16T15:28:25;8.90;63.50
46508;DHT22;32223;53.654;10.014;2023-03-16T15:30:56;8.90;63.80
46508;DHT22;32223;53.654;10.014;2023-03-16T15:33:23;8.90;64.60
46508;DHT22;32223;53.654;10.014;2023-03-16T15:35:49;8.80;64.30
46508;DHT22;32223;53.654;10.014;2023-03-16T15:38:33;8.70;64.60
46508;DHT22;32223;53.654;10.014;2023-03-16T15:41:01;8.70;64.90
46508;DHT22;32223;53.654;10.014;2023-03-16T15:43:28;8.70;65.30
46508;DHT22;32223;53.654;10.014;2023-03-16T15:45:55;8.80;65.60
46508;DHT22;32223;53.654;10.014;2023-03-16T15:48:21;8.70;64.20
46508;DHT22;32223;53.654;10.014;2023-03-16T15:53:27;8.80;64.10
46508;DHT22;32223;53.654;10.014;2023-03-16T15:56:01;8.80;65.00
46508;DHT22;32223;53.654;10.014;2023-03-16T15:58:28;8.70;64.50
46508;DHT22;32223;53.654;10.014;2023-03-16T16:00:57;8.70;65.00
46508;DHT22;32223;53.654;10.014;2023-03-16T16:03:24;8.70;65.90
46508;DHT22;32223;53.654;10.014;2023-03-16T16:05:50;8.60;66.10
46508;DHT22;32223;53.654;10.014;2023-03-16T16:08:17;8.60;67.00
46508;DHT22;32223;53.654;10.014;2023-03-16T16:10:44;8.50;66.70
46508;DHT22;32223;53.654;10.014;2023-03-16T16:13:26;8.50;67.30
46508;DHT22;32223;53.654;10.014;2023-03-16T16:15:52;8.50;67.20
46508;DHT22;32223;53.654;10.014;2023-03-16T16:20:54;8.40;66.90
46508;DHT22;32223;53.654;10.014;2023-03-16T16:23:19;8.30;66.00
46508;DHT22;32223;53.654;10.014;2023-03-16T16:25:46;8.30;66.70
46508;DHT22;32223;53.654;10.014;2023-03-16T16:28:21;8.30;66.60
46508;DHT22;32223;53.654;10.014;2023-03-16T16:30:47;8.20;66.00
46508;DHT22;32223;53.654;10.014;2023-03-16T16:33:33;8.20;66.50
46508;DHT22;32223;53.654;10.014;2023-03-16T16:36:01;8.20;66.40
46508;DHT22;32223;53.654;10.014;2023-03-16T16:38:27;8.20;67.10
46508;DHT22;32223;53.654;10.014;2023-03-16T16:40:53;8.10;66.60
46508;DHT22;32223;53.654;10.014;2023-03-16T16:43:45;8.10;67.30
46508;DHT22;32223;53.654;10.014;2023-03-16T16:46:17;8.10;67.80